createdAt,value
2022-08-28T00:01:29.250Z,24.40
2022-08-28T00:04:18.240Z,24.40
2022-08-28T00:07:08.105Z,24.40
2022-08-28T00:09:56.533Z,24.40
2022-08-28T00:12:45.282Z,24.40
2022-08-28T00:15:36.413Z,24.30
2022-08-28T00:18:25.621Z,24.30
2022-08-28T00:21:14.503Z,24.30
2022-08-28T00:24:04.987Z,24.40
2022-08-28T00:27:10.796Z,24.30
2022-08-28T00:29:59.331Z,24.30
2022-08-28T00:32:47.795Z,24.30
2022-08-28T00:35:36.268Z,24.30
2022-08-28T00:38:26.148Z,24.30
2022-08-28T00:41:15.987Z,24.30
2022-08-28T00:44:11.753Z,24.30
2022-08-28T00:47:00.276Z,24.30
2022-08-28T00:49:50.984Z,24.40
2022-08-28T00:52:38.492Z,24.40
2022-08-28T00:55:28.286Z,24.40
2022-08-28T00:58:18.214Z,24.30
2022-08-28T01:01:06.984Z,24.30
2022-08-28T01:03:55.459Z,24.30
2022-08-28T01:06:44.071Z,24.30
2022-08-28T01:09:32.940Z,24.30
2022-08-28T01:12:26.563Z,24.20
2022-08-28T01:15:18.313Z,24.20
2022-08-28T01:18:09.503Z,24.20
2022-08-28T01:21:02.403Z,24.20
2022-08-28T01:23:54.320Z,24.10
2022-08-28T01:26:42.951Z,24.10
2022-08-28T01:29:31.527Z,24.10
2022-08-28T01:32:33.607Z,24.10
2022-08-28T01:35:23.699Z,24.10
2022-08-28T01:38:12.357Z,24.10
2022-08-28T01:41:07.609Z,24.00
2022-08-28T01:43:56.137Z,24.00
2022-08-28T01:46:44.734Z,24.10
2022-08-28T01:49:33.291Z,24.00
2022-08-28T01:52:26.345Z,24.00
2022-08-28T01:55:15.076Z,24.00
2022-08-28T01:58:07.662Z,24.10
2022-08-28T02:00:56.133Z,24.10
2022-08-28T02:03:44.620Z,24.10
2022-08-28T02:06:33.843Z,24.10
2022-08-28T02:09:22.272Z,24.10
2022-08-28T02:12:10.771Z,24.00
2022-08-28T02:15:01.053Z,24.00
2022-08-28T02:17:49.625Z,24.00
2022-08-28T02:20:38.132Z,24.00
2022-08-28T02:23:26.541Z,24.00
2022-08-28T02:26:15.368Z,23.90
2022-08-28T02:29:03.812Z,23.90
2022-08-28T02:31:53.664Z,23.90
2022-08-28T02:34:43.594Z,23.90
2022-08-28T02:37:32.030Z,23.90
2022-08-28T02:40:22.739Z,23.80
2022-08-28T02:43:11.377Z,23.80
2022-08-28T02:45:59.968Z,23.80
2022-08-28T02:48:50.420Z,23.90
2022-08-28T02:51:38.922Z,23.90
2022-08-28T02:54:27.393Z,23.90
2022-08-28T02:57:16.088Z,23.90
2022-08-28T03:00:05.851Z,23.90
2022-08-28T03:02:54.418Z,23.90
2022-08-28T03:05:44.765Z,23.90
2022-08-28T03:08:33.441Z,23.90
2022-08-28T03:11:22.882Z,23.90
2022-08-28T03:14:11.378Z,23.90
2022-08-28T03:16:59.928Z,23.90
2022-08-28T03:19:48.948Z,23.90
2022-08-28T03:22:56.195Z,23.90
2022-08-28T03:25:44.979Z,23.90
2022-08-28T03:28:36.317Z,23.90
2022-08-28T03:31:26.843Z,23.80
2022-08-28T03:34:15.280Z,23.90
2022-08-28T03:37:03.734Z,23.80
2022-08-28T03:39:53.594Z,23.80
2022-08-28T03:42:42.095Z,23.80
2022-08-28T03:45:35.411Z,23.70
2022-08-28T03:48:24.401Z,23.70
2022-08-28T03:51:14.542Z,23.70
2022-08-28T03:54:04.196Z,23.70
2022-08-28T03:56:53.956Z,23.60
2022-08-28T03:59:42.409Z,23.60
2022-08-28T04:02:31.333Z,23.60
2022-08-28T04:05:19.900Z,23.50
2022-08-28T04:08:08.900Z,23.50
2022-08-28T04:10:57.484Z,23.50
2022-08-28T04:13:47.298Z,23.40
2022-08-28T04:16:36.250Z,23.50
2022-08-28T04:19:24.808Z,23.40
2022-08-28T04:22:13.322Z,23.40
2022-08-28T04:25:02.172Z,23.40
2022-08-28T04:27:50.857Z,23.40
2022-08-28T04:30:41.678Z,23.40
2022-08-28T04:33:31.500Z,23.40
2022-08-28T04:36:19.999Z,23.40
2022-08-28T04:39:10.905Z,23.30
2022-08-28T04:41:59.312Z,23.30
2022-08-28T04:44:47.817Z,23.30
2022-08-28T04:47:38.712Z,23.30
2022-08-28T04:50:27.240Z,23.30
2022-08-28T04:53:17.037Z,23.30
2022-08-28T04:56:06.839Z,23.30
2022-08-28T04:58:55.350Z,23.30
2022-08-28T05:01:44.033Z,23.30
2022-08-28T05:04:33.918Z,23.30
2022-08-28T05:07:22.426Z,23.30
2022-08-28T05:10:11.174Z,23.30
2022-08-28T05:12:59.574Z,23.30
2022-08-28T05:15:49.660Z,23.20
2022-08-28T05:18:38.358Z,23.20
2022-08-28T05:21:28.748Z,23.20
2022-08-28T05:24:17.277Z,23.20
2022-08-28T05:27:06.304Z,23.20
2022-08-28T05:29:57.374Z,23.10
2022-08-28T05:32:49.571Z,23.10
2022-08-28T05:35:39.274Z,23.10
2022-08-28T05:38:29.499Z,23.10
2022-08-28T05:41:20.598Z,23.10
2022-08-28T05:44:10.477Z,23.10
2022-08-28T05:46:58.986Z,23.10
2022-08-28T05:49:47.435Z,23.10
2022-08-28T05:52:35.982Z,23.10
2022-08-28T05:55:25.831Z,23.10
2022-08-28T05:58:28.223Z,23.10
2022-08-28T06:01:19.442Z,23.10
2022-08-28T06:04:10.140Z,23.30
2022-08-28T06:06:58.870Z,23.10
2022-08-28T06:09:47.383Z,23.10
2022-08-28T06:12:37.305Z,23.10
2022-08-28T06:15:26.873Z,23.10
2022-08-28T06:18:16.028Z,23.10
2022-08-28T06:21:04.622Z,23.10
2022-08-28T06:23:53.113Z,23.10
2022-08-28T06:26:41.653Z,23.10
2022-08-28T06:29:31.551Z,23.10
2022-08-28T06:32:20.190Z,23.20
2022-08-28T06:35:09.154Z,23.20
2022-08-28T06:37:59.286Z,23.20
2022-08-28T06:40:49.060Z,23.30
2022-08-28T06:43:37.660Z,23.30
2022-08-28T06:46:30.245Z,23.40
2022-08-28T06:49:18.862Z,23.40
2022-08-28T06:52:07.409Z,23.50
2022-08-28T06:54:56.113Z,23.60
2022-08-28T06:57:44.534Z,23.70
2022-08-28T07:00:33.165Z,23.70
2022-08-28T07:03:22.949Z,23.80
2022-08-28T07:06:11.954Z,23.80
2022-08-28T07:09:00.387Z,23.80
2022-08-28T07:11:48.957Z,23.90
2022-08-28T07:14:38.046Z,23.90
2022-08-28T07:17:26.490Z,23.90
2022-08-28T07:20:16.567Z,24.00
2022-08-28T07:23:05.287Z,24.00
2022-08-28T07:25:54.054Z,24.00
2022-08-28T07:28:42.651Z,24.20
2022-08-28T07:31:33.943Z,24.30
2022-08-28T07:34:27.252Z,24.60
2022-08-28T07:37:17.808Z,24.90
2022-08-28T07:40:08.537Z,25.30
2022-08-28T07:43:17.285Z,25.60
2022-08-28T07:46:07.951Z,26.00
2022-08-28T07:48:58.691Z,26.30
2022-08-28T07:51:47.151Z,26.50
2022-08-28T07:54:37.269Z,26.70
2022-08-28T07:57:25.729Z,26.90
2022-08-28T08:00:15.880Z,27.00
2022-08-28T08:03:04.995Z,27.20
2022-08-28T08:05:53.978Z,27.30
2022-08-28T08:08:42.813Z,27.30
2022-08-28T08:11:32.808Z,27.40
2022-08-28T08:14:21.751Z,27.30
2022-08-28T08:17:10.347Z,27.30
2022-08-28T08:19:58.818Z,27.20
2022-08-28T08:22:47.269Z,27.10
2022-08-28T08:25:35.867Z,27.00
2022-08-28T08:28:25.677Z,26.80
2022-08-28T08:31:15.750Z,26.70
2022-08-28T08:34:05.640Z,26.70
2022-08-28T08:36:54.244Z,26.60
2022-08-28T08:39:43.565Z,26.50
2022-08-28T08:42:33.050Z,26.50
2022-08-28T08:45:26.420Z,26.60
2022-08-28T08:48:20.867Z,26.70
2022-08-28T08:51:28.085Z,26.80
2022-08-28T08:54:19.094Z,26.90
2022-08-28T08:57:07.521Z,26.90
2022-08-28T08:59:56.065Z,26.90
2022-08-28T09:02:50.217Z,27.00
2022-08-28T09:05:45.372Z,27.10
2022-08-28T09:08:48.856Z,27.20
2022-08-28T09:11:45.405Z,27.40
2022-08-28T09:14:44.999Z,27.70
2022-08-28T09:17:37.380Z,27.90
2022-08-28T09:20:32.518Z,28.20
2022-08-28T09:23:23.120Z,28.50
2022-08-28T09:26:13.889Z,28.70
2022-08-28T09:29:06.210Z,28.80
2022-08-28T09:31:54.662Z,28.80
2022-08-28T09:34:43.140Z,28.80
2022-08-28T09:37:33.109Z,28.70
2022-08-28T09:40:24.573Z,28.60
2022-08-28T09:43:28.708Z,28.50
2022-08-28T09:46:21.593Z,28.50
2022-08-28T09:49:11.882Z,28.60
2022-08-28T09:52:01.635Z,28.70
2022-08-28T09:54:51.554Z,28.90
2022-08-28T09:57:46.425Z,29.00
2022-08-28T10:00:38.109Z,29.20
2022-08-28T10:03:28.961Z,29.40
2022-08-28T10:06:22.806Z,29.60
2022-08-28T10:09:17.603Z,29.70
2022-08-28T10:12:14.040Z,29.90
2022-08-28T10:15:11.074Z,30.00
2022-08-28T10:18:19.402Z,30.20
2022-08-28T10:21:18.999Z,30.20
2022-08-28T10:24:26.707Z,30.30
2022-08-28T10:27:32.217Z,30.40
2022-08-28T10:30:22.929Z,30.40
2022-08-28T10:33:25.540Z,30.40
2022-08-28T10:36:23.182Z,30.40
2022-08-28T10:39:31.332Z,30.40
2022-08-28T10:42:30.228Z,30.50
2022-08-28T10:45:25.829Z,30.60
2022-08-28T10:48:19.693Z,30.70
2022-08-28T10:51:12.881Z,30.80
2022-08-28T10:54:03.524Z,30.80
2022-08-28T10:56:56.624Z,30.70
2022-08-28T10:59:49.569Z,30.60
2022-08-28T11:02:38.333Z,30.60
2022-08-28T11:05:29.545Z,30.50
2022-08-28T11:08:26.051Z,30.50
2022-08-28T11:11:15.349Z,30.40
2022-08-28T11:14:03.728Z,30.30
2022-08-28T11:16:54.463Z,30.20
2022-08-28T11:19:58.834Z,30.20
2022-08-28T11:22:49.752Z,30.20
2022-08-28T11:25:45.286Z,30.20
2022-08-28T11:28:47.243Z,30.30
2022-08-28T11:31:41.019Z,30.30
2022-08-28T11:34:59.205Z,30.40
2022-08-28T11:37:49.667Z,30.40
2022-08-28T11:40:57.931Z,30.60
2022-08-28T11:43:46.783Z,30.70
2022-08-28T11:46:38.086Z,30.80
2022-08-28T11:49:44.389Z,30.90
2022-08-28T11:52:45.895Z,31.00
2022-08-28T11:55:51.912Z,31.20
2022-08-28T11:58:45.362Z,31.30
2022-08-28T12:01:36.798Z,31.30
2022-08-28T12:04:25.339Z,31.40
2022-08-28T12:07:21.954Z,31.40
2022-08-28T12:10:52.351Z,31.40
2022-08-28T12:13:51.029Z,31.40
2022-08-28T12:17:20.255Z,31.40
2022-08-28T12:20:10.821Z,31.20
2022-08-28T12:23:00.786Z,31.20
2022-08-28T12:25:49.224Z,31.00
2022-08-28T12:28:47.008Z,30.80
2022-08-28T12:32:08.799Z,30.80
2022-08-28T12:35:17.606Z,30.90
2022-08-28T12:38:07.409Z,31.00
2022-08-28T12:40:55.878Z,31.20
2022-08-28T12:43:48.326Z,31.30
2022-08-28T12:46:38.693Z,31.50
2022-08-28T12:49:30.676Z,31.60
2022-08-28T12:52:21.092Z,31.80
2022-08-28T12:55:10.077Z,32.00
2022-08-28T12:57:58.594Z,32.00
2022-08-28T13:00:54.307Z,32.00
2022-08-28T13:03:45.933Z,32.00
2022-08-28T13:06:36.371Z,32.00
2022-08-28T13:09:26.674Z,32.00
2022-08-28T13:12:20.993Z,32.00
2022-08-28T13:15:11.462Z,32.00
2022-08-28T13:18:01.387Z,32.00
2022-08-28T13:20:51.178Z,32.00
2022-08-28T13:23:39.775Z,32.00
2022-08-28T13:26:33.924Z,31.90
2022-08-28T13:29:24.787Z,31.90
2022-08-28T13:32:17.470Z,31.80
2022-08-28T13:35:42.145Z,31.80
2022-08-28T13:38:30.639Z,31.80
2022-08-28T13:41:19.393Z,31.90
2022-08-28T13:44:08.541Z,32.00
2022-08-28T13:46:57.263Z,32.00
2022-08-28T13:49:45.746Z,32.00
2022-08-28T13:52:35.934Z,31.90
2022-08-28T13:55:24.891Z,31.90
2022-08-28T13:58:15.781Z,32.00
2022-08-28T14:01:05.149Z,32.00
2022-08-28T14:03:52.719Z,32.10
2022-08-28T14:06:44.328Z,32.00
2022-08-28T14:09:34.194Z,32.00
2022-08-28T14:12:22.708Z,32.10
2022-08-28T14:15:20.146Z,32.10
2022-08-28T14:18:08.683Z,32.20
2022-08-28T14:20:57.495Z,32.20
2022-08-28T14:23:46.549Z,32.30
2022-08-28T14:26:36.479Z,32.30
2022-08-28T14:29:24.923Z,32.40
2022-08-28T14:32:13.463Z,32.40
2022-08-28T14:35:01.867Z,32.40
2022-08-28T14:37:50.427Z,32.40
2022-08-28T14:40:39.317Z,32.30
2022-08-28T14:43:30.148Z,32.40
2022-08-28T14:46:19.431Z,32.30
2022-08-28T14:49:09.629Z,32.30
2022-08-28T14:51:58.220Z,32.20
2022-08-28T14:54:46.744Z,32.10
2022-08-28T14:57:37.007Z,32.00
2022-08-28T15:00:26.937Z,31.90
2022-08-28T15:03:15.789Z,31.60
2022-08-28T15:06:06.574Z,31.40
2022-08-28T15:08:55.098Z,31.20
2022-08-28T15:11:43.955Z,31.20
2022-08-28T15:14:32.439Z,31.10
2022-08-28T15:17:23.189Z,31.00
2022-08-28T15:20:22.685Z,30.90
2022-08-28T15:23:11.392Z,30.90
2022-08-28T15:25:59.819Z,30.90
2022-08-28T15:28:48.280Z,30.90
2022-08-28T15:31:39.065Z,30.90
2022-08-28T15:34:29.292Z,30.90
2022-08-28T15:37:18.519Z,31.00
2022-08-28T15:40:26.660Z,30.90
2022-08-28T15:43:15.555Z,31.00
2022-08-28T15:46:13.011Z,30.90
2022-08-28T15:49:01.685Z,31.00
2022-08-28T15:51:52.081Z,31.00
2022-08-28T15:54:40.566Z,31.00
2022-08-28T15:57:28.983Z,31.10
2022-08-28T16:00:18.120Z,31.10
2022-08-28T16:03:06.638Z,31.10
2022-08-28T16:05:55.144Z,31.10
2022-08-28T16:08:45.176Z,31.00
2022-08-28T16:11:34.351Z,31.00
2022-08-28T16:14:28.040Z,31.00
2022-08-28T16:17:16.487Z,31.00
2022-08-28T16:20:12.957Z,31.00
2022-08-28T16:23:02.062Z,30.90
2022-08-28T16:25:51.974Z,30.90
2022-08-28T16:28:40.477Z,30.90
2022-08-28T16:31:30.787Z,30.80
2022-08-28T16:34:19.647Z,30.80
2022-08-28T16:37:08.779Z,30.80
2022-08-28T16:39:57.479Z,30.70
2022-08-28T16:42:51.682Z,30.60
2022-08-28T16:45:43.504Z,30.60
2022-08-28T16:48:31.979Z,30.50
2022-08-28T16:51:20.563Z,30.30
2022-08-28T16:54:09.348Z,30.30
2022-08-28T16:56:57.978Z,30.20
2022-08-28T16:59:48.278Z,30.10
2022-08-28T17:02:41.786Z,30.00
2022-08-28T17:05:30.495Z,30.00
2022-08-28T17:08:19.010Z,29.90
2022-08-28T17:11:07.685Z,29.90
2022-08-28T17:13:56.496Z,29.80
2022-08-28T17:16:46.654Z,29.70
2022-08-28T17:19:35.159Z,29.70
2022-08-28T17:22:32.003Z,29.70
2022-08-28T17:25:20.503Z,29.60
2022-08-28T17:28:08.954Z,29.50
2022-08-28T17:30:57.502Z,29.50
2022-08-28T17:33:47.374Z,29.40
2022-08-28T17:36:36.892Z,29.40
2022-08-28T17:39:25.838Z,29.40
2022-08-28T17:42:14.297Z,29.40
2022-08-28T17:45:02.874Z,29.40
2022-08-28T17:47:53.502Z,29.30
2022-08-28T17:50:43.383Z,29.30
2022-08-28T17:53:31.806Z,29.30
2022-08-28T17:56:20.327Z,29.20
2022-08-28T17:59:21.905Z,29.10
2022-08-28T18:02:10.747Z,29.10
2022-08-28T18:04:59.423Z,29.00
2022-08-28T18:07:52.332Z,28.90
2022-08-28T18:10:41.077Z,28.80
2022-08-28T18:13:30.179Z,28.70
2022-08-28T18:16:18.970Z,28.60
2022-08-28T18:19:09.499Z,28.50
2022-08-28T18:21:57.989Z,28.40
2022-08-28T18:24:52.410Z,28.20
2022-08-28T18:27:40.995Z,28.10
2022-08-28T18:30:29.618Z,27.90
2022-08-28T18:33:22.146Z,27.80
2022-08-28T18:36:11.923Z,27.60
2022-08-28T18:39:00.354Z,27.40
2022-08-28T18:41:51.252Z,27.20
2022-08-28T18:44:39.736Z,27.00
2022-08-28T18:47:28.398Z,26.80
2022-08-28T18:50:16.916Z,26.60
2022-08-28T18:53:06.191Z,26.40
2022-08-28T18:55:55.574Z,26.30
2022-08-28T18:58:45.784Z,26.10
2022-08-28T19:01:34.462Z,25.90
2022-08-28T19:04:22.996Z,25.80
2022-08-28T19:07:11.507Z,25.60
2022-08-28T19:09:59.950Z,25.50
2022-08-28T19:12:48.551Z,25.30
2022-08-28T19:15:40.494Z,25.20
2022-08-28T19:18:29.918Z,25.00
2022-08-28T19:21:19.652Z,24.90
2022-08-28T19:24:08.349Z,24.80
2022-08-28T19:26:56.793Z,24.70
2022-08-28T19:29:45.240Z,24.60
2022-08-28T19:32:35.045Z,24.50
2022-08-28T19:35:24.818Z,24.40
2022-08-28T19:38:13.594Z,24.40
2022-08-28T19:41:02.614Z,24.30
2022-08-28T19:43:51.703Z,24.20
2022-08-28T19:46:40.504Z,24.20
2022-08-28T19:49:30.396Z,24.10
2022-08-28T19:52:19.165Z,24.10
2022-08-28T19:55:09.189Z,24.10
2022-08-28T19:57:57.638Z,24.10
2022-08-28T20:00:46.096Z,24.00
2022-08-28T20:03:36.348Z,24.00
2022-08-28T20:06:26.415Z,24.00
2022-08-28T20:09:14.843Z,24.00
2022-08-28T20:12:03.725Z,24.00
2022-08-28T20:14:52.180Z,24.00
2022-08-28T20:17:43.871Z,24.00
2022-08-28T20:20:38.184Z,23.90
2022-08-28T20:23:28.536Z,23.90
2022-08-28T20:26:17.022Z,23.90
2022-08-28T20:29:05.693Z,23.80
2022-08-28T20:31:54.283Z,23.80
2022-08-28T20:34:44.574Z,23.70
2022-08-28T20:37:34.466Z,23.70
2022-08-28T20:40:34.759Z,23.60
2022-08-28T20:43:23.399Z,23.60
2022-08-28T20:46:12.088Z,23.50
2022-08-28T20:49:00.725Z,23.50
2022-08-28T20:51:56.566Z,23.50
2022-08-28T20:54:46.008Z,23.50
2022-08-28T20:57:37.635Z,23.50
2022-08-28T21:00:26.594Z,23.50
2022-08-28T21:03:15.095Z,23.50
2022-08-28T21:06:03.601Z,23.60
2022-08-28T21:08:53.267Z,23.60
2022-08-28T21:11:42.151Z,23.60
2022-08-28T21:14:32.084Z,23.60
2022-08-28T21:17:20.850Z,23.60
2022-08-28T21:20:20.011Z,23.70
2022-08-28T21:23:08.512Z,23.70
2022-08-28T21:25:57.109Z,23.80
2022-08-28T21:28:45.557Z,23.80
2022-08-28T21:31:35.465Z,23.90
2022-08-28T21:34:24.672Z,23.90
2022-08-28T21:37:13.168Z,23.90
2022-08-28T21:40:02.005Z,23.90
2022-08-28T21:42:50.445Z,23.90
2022-08-28T21:45:38.998Z,23.90
2022-08-28T21:48:28.903Z,23.90
2022-08-28T21:51:18.799Z,23.90
2022-08-28T21:54:07.488Z,23.90
2022-08-28T21:56:58.545Z,23.90
2022-08-28T21:59:47.490Z,23.90
2022-08-28T22:02:36.034Z,23.90
2022-08-28T22:05:28.272Z,23.90
2022-08-28T22:08:17.696Z,23.90
2022-08-28T22:11:06.684Z,23.90
2022-08-28T22:13:55.332Z,23.90
2022-08-28T22:16:44.720Z,23.90
2022-08-28T22:19:33.212Z,23.80
2022-08-28T22:22:40.687Z,23.90
2022-08-28T22:25:29.174Z,23.80
2022-08-28T22:28:17.659Z,23.80
2022-08-28T22:31:06.408Z,23.80
2022-08-28T22:33:55.076Z,23.80
2022-08-28T22:36:43.521Z,23.70
2022-08-28T22:39:33.371Z,23.70
2022-08-28T22:42:22.966Z,23.70
2022-08-28T22:45:11.757Z,23.70
2022-08-28T22:48:00.326Z,23.60
2022-08-28T22:50:49.899Z,23.60
2022-08-28T22:53:38.548Z,23.60
2022-08-28T22:56:28.362Z,23.60
2022-08-28T22:59:16.827Z,23.60
2022-08-28T23:02:05.628Z,23.50
2022-08-28T23:04:54.130Z,23.50
2022-08-28T23:07:42.926Z,23.50
2022-08-28T23:10:55.396Z,23.50
2022-08-28T23:13:41.185Z,23.50
2022-08-28T23:16:29.810Z,23.50
2022-08-28T23:19:19.103Z,23.40
2022-08-28T23:22:07.626Z,23.40
2022-08-28T23:24:56.114Z,23.30
2022-08-28T23:27:44.843Z,23.30
2022-08-28T23:30:34.875Z,23.30
2022-08-28T23:33:24.193Z,23.30
2022-08-28T23:36:13.009Z,23.30
2022-08-28T23:39:01.482Z,23.20
2022-08-28T23:41:49.985Z,23.20
2022-08-28T23:44:38.475Z,23.20
2022-08-28T23:47:28.359Z,23.20
2022-08-28T23:50:18.854Z,23.10
2022-08-28T23:53:07.315Z,23.10
2022-08-28T23:55:56.507Z,23.10
2022-08-28T23:58:48.110Z,23.10
